createdAt,value
2018-02-16T00:02:09.796Z,13.65
2018-02-16T00:04:38.073Z,15.93
2018-02-16T00:07:06.333Z,13.00
2018-02-16T00:09:34.610Z,13.98
2018-02-16T00:12:02.925Z,16.00
2018-02-16T00:14:30.463Z,16.05
2018-02-16T00:16:58.867Z,15.48
2018-02-16T00:19:26.436Z,16.90
2018-02-16T00:21:53.961Z,15.90
2018-02-16T00:24:21.513Z,17.05
2018-02-16T00:26:49.065Z,16.40
2018-02-16T00:29:17.724Z,15.07
2018-02-16T00:31:45.287Z,15.00
2018-02-16T00:34:12.804Z,16.00
2018-02-16T00:36:40.328Z,16.60
2018-02-16T00:39:07.833Z,16.02
2018-02-16T00:41:35.458Z,16.12
2018-02-16T00:44:02.998Z,15.60
2018-02-16T00:46:30.511Z,17.85
2018-02-16T00:48:58.028Z,16.15
2018-02-16T00:51:25.550Z,17.23
2018-02-16T00:53:53.053Z,16.15
2018-02-16T00:56:20.583Z,16.42
2018-02-16T00:58:48.108Z,16.70
2018-02-16T01:01:15.669Z,16.70
2018-02-16T01:03:43.204Z,17.30
2018-02-16T01:06:11.500Z,19.67
2018-02-16T01:08:39.059Z,17.12
2018-02-16T01:11:06.577Z,16.58
2018-02-16T01:13:35.674Z,17.35
2018-02-16T01:16:03.521Z,17.75
2018-02-16T01:18:31.041Z,16.95
2018-02-16T01:20:59.329Z,19.17
2018-02-16T01:23:26.839Z,18.08
2018-02-16T01:25:54.370Z,17.62
2018-02-16T01:28:21.859Z,19.02
2018-02-16T01:30:49.380Z,18.25
2018-02-16T01:33:17.626Z,17.98
2018-02-16T01:35:45.150Z,18.20
2018-02-16T01:38:12.641Z,17.85
2018-02-16T01:40:40.154Z,16.77
2018-02-16T01:43:08.415Z,17.67
2018-02-16T01:45:36.706Z,18.23
2018-02-16T01:48:04.975Z,18.45
2018-02-16T01:50:33.268Z,20.37
2018-02-16T01:53:01.536Z,16.42
2018-02-16T01:55:29.814Z,17.00
2018-02-16T01:57:58.093Z,17.10
2018-02-16T02:00:26.372Z,17.70
2018-02-16T02:02:53.865Z,17.62
2018-02-16T02:05:21.568Z,18.80
2018-02-16T02:07:49.088Z,16.83
2018-02-16T02:10:17.361Z,18.55
2018-02-16T02:12:45.620Z,17.37
2018-02-16T02:15:13.141Z,17.20
2018-02-16T02:17:40.655Z,13.85
2018-02-16T02:20:08.158Z,18.80
2018-02-16T02:22:35.674Z,17.40
2018-02-16T02:25:03.164Z,16.62
2018-02-16T02:27:31.443Z,16.00
2018-02-16T02:29:59.703Z,17.60
2018-02-16T02:32:27.243Z,17.17
2018-02-16T02:34:54.772Z,16.80
2018-02-16T02:37:22.299Z,18.45
2018-02-16T02:39:49.794Z,17.67
2018-02-16T02:42:17.310Z,18.17
2018-02-16T02:44:44.840Z,18.00
2018-02-16T02:47:12.369Z,16.90
2018-02-16T02:49:40.642Z,18.40
2018-02-16T02:52:08.916Z,17.70
2018-02-16T02:54:37.190Z,17.87
2018-02-16T02:57:05.503Z,19.60
2018-02-16T02:59:32.993Z,18.52
2018-02-16T03:02:00.507Z,18.87
2018-02-16T03:04:28.763Z,17.52
2018-02-16T03:06:56.274Z,18.85
2018-02-16T03:09:23.788Z,18.17
2018-02-16T03:11:51.280Z,17.30
2018-02-16T03:14:19.548Z,18.08
2018-02-16T03:16:47.128Z,19.15
2018-02-16T03:19:15.384Z,20.00
2018-02-16T03:21:42.897Z,19.80
2018-02-16T03:24:10.381Z,17.73
2018-02-16T03:26:37.896Z,19.25
2018-02-16T03:29:06.176Z,20.95
2018-02-16T03:31:34.450Z,19.55
2018-02-16T03:34:02.713Z,18.35
2018-02-16T03:36:30.226Z,19.58
2018-02-16T03:38:57.791Z,15.88
2018-02-16T03:41:25.309Z,17.45
2018-02-16T03:43:52.970Z,18.60
2018-02-16T03:46:21.244Z,18.12
2018-02-16T03:48:48.739Z,19.20
2018-02-16T03:51:17.051Z,17.62
2018-02-16T03:53:44.556Z,19.25
2018-02-16T03:56:12.057Z,18.33
2018-02-16T03:58:39.561Z,19.05
2018-02-16T04:01:07.070Z,18.67
2018-02-16T04:03:35.349Z,18.58
2018-02-16T04:06:04.254Z,18.52
2018-02-16T04:08:32.530Z,16.92
2018-02-16T04:11:00.808Z,19.83
2018-02-16T04:13:29.108Z,20.27
2018-02-16T04:15:56.604Z,19.77
2018-02-16T04:18:24.110Z,19.30
2018-02-16T04:20:51.615Z,20.30
2018-02-16T04:23:19.145Z,18.95
2018-02-16T04:25:47.424Z,19.85
2018-02-16T04:28:15.702Z,20.60
2018-02-16T04:30:43.979Z,19.60
2018-02-16T04:33:12.252Z,20.30
2018-02-16T04:35:40.389Z,21.35
2018-02-16T04:38:07.920Z,20.10
2018-02-16T04:40:36.206Z,20.60
2018-02-16T04:43:03.718Z,21.90
2018-02-16T04:45:31.251Z,19.77
2018-02-16T04:47:58.761Z,18.83
2018-02-16T04:50:26.257Z,20.52
2018-02-16T04:52:53.779Z,21.83
2018-02-16T04:55:21.304Z,19.60
2018-02-16T04:57:48.846Z,21.77
2018-02-16T05:00:16.544Z,20.58
2018-02-16T05:02:44.051Z,23.60
2018-02-16T05:05:11.539Z,20.55
2018-02-16T05:07:39.815Z,20.20
2018-02-16T05:10:07.306Z,21.30
2018-02-16T05:12:34.809Z,21.70
2018-02-16T05:15:02.349Z,21.83
2018-02-16T05:17:29.852Z,22.85
2018-02-16T05:19:57.345Z,22.10
2018-02-16T05:22:24.839Z,19.52
2018-02-16T05:24:52.328Z,20.40
2018-02-16T05:27:19.851Z,22.40
2018-02-16T05:29:47.413Z,21.67
2018-02-16T05:32:14.956Z,20.95
2018-02-16T05:34:43.210Z,21.52
2018-02-16T05:37:11.485Z,21.45
2018-02-16T05:39:39.017Z,20.20
2018-02-16T05:42:06.509Z,22.15
2018-02-16T05:44:34.109Z,19.30
2018-02-16T05:47:02.167Z,20.92
2018-02-16T05:49:30.450Z,22.90
2018-02-16T05:51:58.724Z,22.67
2018-02-16T05:54:26.996Z,20.55
2018-02-16T05:56:54.494Z,22.00
2018-02-16T05:59:21.993Z,20.20
2018-02-16T06:01:49.494Z,22.70
2018-02-16T06:04:17.029Z,21.40
2018-02-16T06:06:44.554Z,20.40
2018-02-16T06:09:12.048Z,19.75
2018-02-16T06:11:39.553Z,19.55
2018-02-16T06:14:07.813Z,19.60
2018-02-16T06:16:35.298Z,19.40
2018-02-16T06:19:03.582Z,19.95
2018-02-16T06:21:31.885Z,20.05
2018-02-16T06:23:59.392Z,19.52
2018-02-16T06:26:26.971Z,18.98
2018-02-16T06:28:54.492Z,18.42
2018-02-16T06:31:21.986Z,18.05
2018-02-16T06:33:49.507Z,18.85
2018-02-16T06:36:17.042Z,20.95
2018-02-16T06:38:45.315Z,17.25
2018-02-16T06:41:13.593Z,17.45
2018-02-16T06:43:41.867Z,17.02
2018-02-16T06:46:09.409Z,18.92
2018-02-16T06:48:36.918Z,17.83
2018-02-16T06:51:05.436Z,16.12
2018-02-16T06:53:33.003Z,17.20
2018-02-16T06:56:00.516Z,16.77
2018-02-16T06:58:28.003Z,16.67
2018-02-16T07:00:55.573Z,14.82
2018-02-16T07:03:23.072Z,16.25
2018-02-16T07:05:50.613Z,16.15
2018-02-16T07:08:18.109Z,14.87
2018-02-16T07:10:45.613Z,13.73
2018-02-16T07:13:13.873Z,14.10
2018-02-16T07:15:42.186Z,14.40
2018-02-16T07:18:09.728Z,14.13
2018-02-16T07:20:37.254Z,14.07
2018-02-16T07:23:05.957Z,14.23
2018-02-16T07:25:33.482Z,15.90
2018-02-16T07:28:00.994Z,13.45
2018-02-16T07:30:28.500Z,14.32
2018-02-16T07:32:56.004Z,14.25
2018-02-16T07:35:23.563Z,13.18
2018-02-16T07:37:51.060Z,14.55
2018-02-16T07:40:19.377Z,16.02
2018-02-16T07:42:46.958Z,14.55
2018-02-16T07:45:14.468Z,14.95
2018-02-16T07:47:43.308Z,13.02
2018-02-16T07:50:10.847Z,16.00
2018-02-16T07:52:38.429Z,14.80
2018-02-16T07:55:05.950Z,13.20
2018-02-16T07:57:34.245Z,13.20
2018-02-16T08:00:02.578Z,15.18
2018-02-16T08:02:30.126Z,13.65
2018-02-16T08:04:59.414Z,12.40
2018-02-16T08:07:27.034Z,14.27
2018-02-16T08:09:55.364Z,12.50
2018-02-16T08:12:24.043Z,12.77
2018-02-16T08:14:51.608Z,12.48
2018-02-16T08:17:19.154Z,12.10
2018-02-16T08:19:47.427Z,11.85
2018-02-16T08:22:16.218Z,10.80
2018-02-16T08:24:44.512Z,10.57
2018-02-16T08:27:12.937Z,11.05
2018-02-16T08:29:40.532Z,11.68
2018-02-16T08:32:08.058Z,10.55
2018-02-16T08:34:35.546Z,11.02
2018-02-16T08:37:03.747Z,9.27
2018-02-16T08:39:31.330Z,10.23
2018-02-16T08:41:59.597Z,9.00
2018-02-16T08:44:27.975Z,11.57
2018-02-16T08:46:55.520Z,9.07
2018-02-16T08:49:23.018Z,9.27
2018-02-16T08:51:51.292Z,10.73
2018-02-16T08:54:19.583Z,8.70
2018-02-16T08:56:47.896Z,8.60
2018-02-16T08:59:15.428Z,9.03
2018-02-16T09:01:43.688Z,9.57
2018-02-16T09:04:11.201Z,8.23
2018-02-16T09:06:38.689Z,8.33
2018-02-16T09:09:06.189Z,7.80
2018-02-16T09:11:33.695Z,7.90
2018-02-16T09:14:01.214Z,5.90
2018-02-16T09:16:29.481Z,7.43
2018-02-16T09:18:57.028Z,8.87
2018-02-16T09:21:24.542Z,7.77
2018-02-16T09:23:52.811Z,7.90
2018-02-16T09:26:21.061Z,7.73
2018-02-16T09:28:48.563Z,7.57
2018-02-16T09:31:16.824Z,6.43
2018-02-16T09:33:45.085Z,6.20
2018-02-16T09:36:17.328Z,7.60
2018-02-16T09:38:45.514Z,7.50
2018-02-16T09:41:13.012Z,6.77
2018-02-16T09:43:42.123Z,7.40
2018-02-16T09:46:10.383Z,8.10
2018-02-16T09:48:39.386Z,7.67
2018-02-16T09:51:06.883Z,6.67
2018-02-16T09:53:35.164Z,7.30
2018-02-16T09:56:02.649Z,6.63
2018-02-16T09:58:30.177Z,7.63
2018-02-16T10:00:58.928Z,7.13
2018-02-16T10:03:26.454Z,8.90
2018-02-16T10:05:53.953Z,6.90
2018-02-16T10:08:21.457Z,6.80
2018-02-16T10:10:49.723Z,7.70
2018-02-16T10:13:17.239Z,7.00
2018-02-16T10:15:44.730Z,8.03
2018-02-16T10:18:12.253Z,7.70
2018-02-16T10:20:39.745Z,6.57
2018-02-16T10:23:08.009Z,6.53
2018-02-16T10:25:35.527Z,7.00
2018-02-16T10:28:03.788Z,6.80
2018-02-16T10:30:31.304Z,6.77
2018-02-16T10:32:58.808Z,6.70
2018-02-16T10:35:26.358Z,7.57
2018-02-16T10:37:53.856Z,7.23
2018-02-16T10:40:22.170Z,7.60
2018-02-16T10:42:49.668Z,7.20
2018-02-16T10:45:17.179Z,7.30
2018-02-16T10:47:45.441Z,9.20
2018-02-16T10:50:13.767Z,7.67
2018-02-16T10:52:41.358Z,6.43
2018-02-16T10:55:08.870Z,7.30
2018-02-16T10:57:37.155Z,9.70
2018-02-16T11:00:05.433Z,9.40
2018-02-16T11:02:38.627Z,8.60
2018-02-16T11:05:12.820Z,7.60
2018-02-16T11:07:45.898Z,10.00
2018-02-16T11:10:13.421Z,9.17
2018-02-16T11:12:40.928Z,10.13
2018-02-16T11:15:08.438Z,8.80
2018-02-16T11:17:36.074Z,9.47
2018-02-16T11:20:04.359Z,9.67
2018-02-16T11:22:31.869Z,10.00
2018-02-16T11:24:59.375Z,9.47
2018-02-16T11:27:26.887Z,9.63
2018-02-16T11:29:54.426Z,9.40
2018-02-16T11:32:21.934Z,10.27
2018-02-16T11:34:49.459Z,8.20
2018-02-16T11:37:17.000Z,8.10
2018-02-16T11:39:45.304Z,8.53
2018-02-16T11:42:12.815Z,7.63
2018-02-16T11:44:40.324Z,9.20
2018-02-16T11:47:08.626Z,10.47
2018-02-16T11:49:36.151Z,10.03
2018-02-16T11:52:03.628Z,8.73
2018-02-16T11:54:31.913Z,9.93
2018-02-16T11:57:00.168Z,9.50
2018-02-16T11:59:27.676Z,11.30
2018-02-16T12:01:55.183Z,10.17
2018-02-16T12:04:22.706Z,9.93
2018-02-16T12:06:50.253Z,9.63
2018-02-16T12:09:17.786Z,8.73
2018-02-16T12:11:45.404Z,10.40
2018-02-16T12:14:13.261Z,9.90
2018-02-16T12:16:40.762Z,11.07
2018-02-16T12:19:08.273Z,9.60
2018-02-16T12:21:36.589Z,9.97
2018-02-16T12:24:04.076Z,9.20
2018-02-16T12:26:31.605Z,10.07
2018-02-16T12:28:59.128Z,9.40
2018-02-16T12:31:27.421Z,10.70
2018-02-16T12:33:55.697Z,10.07
2018-02-16T12:36:23.962Z,10.00
2018-02-16T12:38:52.236Z,9.87
2018-02-16T12:41:19.767Z,10.47
2018-02-16T12:43:47.271Z,11.07
2018-02-16T12:46:14.780Z,9.87
2018-02-16T12:48:42.409Z,10.70
2018-02-16T12:51:10.686Z,9.37
2018-02-16T12:53:38.965Z,10.43
2018-02-16T12:56:07.236Z,9.93
2018-02-16T12:58:34.742Z,9.10
2018-02-16T13:01:02.227Z,9.00
2018-02-16T13:03:29.728Z,8.53
2018-02-16T13:05:57.247Z,9.60
2018-02-16T13:08:24.748Z,7.57
2018-02-16T13:10:52.243Z,9.20
2018-02-16T13:13:20.498Z,7.47
2018-02-16T13:15:47.982Z,8.77
2018-02-16T13:18:16.257Z,6.90
2018-02-16T13:20:44.507Z,7.77
2018-02-16T13:23:12.002Z,7.00
2018-02-16T13:25:40.283Z,7.40
2018-02-16T13:28:08.566Z,6.80
2018-02-16T13:30:36.834Z,7.93
2018-02-16T13:33:04.766Z,5.70
2018-02-16T13:35:32.287Z,7.03
2018-02-16T13:38:00.561Z,7.17
2018-02-16T13:40:28.844Z,6.40
2018-02-16T13:42:57.275Z,6.70
2018-02-16T13:45:24.772Z,6.97
2018-02-16T13:47:52.267Z,6.50
2018-02-16T13:50:20.548Z,6.60
2018-02-16T13:52:48.873Z,6.13
2018-02-16T13:55:16.380Z,8.00
2018-02-16T13:57:44.655Z,5.33
2018-02-16T14:00:12.931Z,4.63
2018-02-16T14:02:41.630Z,6.00
2018-02-16T14:05:09.906Z,7.30
2018-02-16T14:07:38.176Z,5.10
2018-02-16T14:10:05.732Z,5.33
2018-02-16T14:12:34.070Z,6.23
2018-02-16T14:15:01.582Z,5.60
2018-02-16T14:17:29.125Z,5.77
2018-02-16T14:19:56.604Z,5.20
2018-02-16T14:22:24.140Z,5.10
2018-02-16T14:24:51.646Z,6.80
2018-02-16T14:27:19.977Z,7.10
2018-02-16T14:29:47.474Z,6.17
2018-02-16T14:32:15.013Z,5.40
2018-02-16T14:34:42.778Z,5.30
2018-02-16T14:37:10.826Z,5.60
2018-02-16T14:39:38.350Z,6.23
2018-02-16T14:42:06.641Z,7.43
2018-02-16T14:44:34.946Z,6.20
2018-02-16T14:47:02.434Z,6.13
2018-02-16T14:49:29.959Z,4.97
2018-02-16T14:51:58.231Z,6.40
2018-02-16T14:54:26.531Z,6.83
2018-02-16T14:56:54.787Z,5.40
2018-02-16T14:59:23.066Z,6.50
2018-02-16T15:01:51.336Z,5.07
2018-02-16T15:04:18.852Z,5.20
2018-02-16T15:06:46.353Z,5.73
2018-02-16T15:09:13.856Z,5.57
2018-02-16T15:11:41.384Z,4.00
2018-02-16T15:14:08.905Z,5.97
2018-02-16T15:16:36.418Z,6.47
2018-02-16T15:19:03.907Z,6.00
2018-02-16T15:21:32.189Z,6.13
2018-02-16T15:24:00.467Z,5.20
2018-02-16T15:26:28.749Z,5.90
2018-02-16T15:28:57.049Z,6.37
2018-02-16T15:31:25.505Z,5.60
2018-02-16T15:33:53.861Z,7.37
2018-02-16T15:36:22.185Z,5.63
2018-02-16T15:38:50.480Z,4.83
2018-02-16T15:41:18.769Z,7.10
2018-02-16T15:43:46.272Z,5.53
2018-02-16T15:46:13.760Z,5.80
2018-02-16T15:48:42.100Z,6.27
2018-02-16T15:51:09.622Z,7.27
2018-02-16T15:53:37.899Z,5.80
2018-02-16T15:56:05.440Z,5.67
2018-02-16T15:58:32.956Z,4.80
2018-02-16T16:01:00.447Z,6.90
2018-02-16T16:03:28.000Z,6.43
2018-02-16T16:05:55.610Z,6.70
2018-02-16T16:08:23.856Z,6.17
2018-02-16T16:10:51.402Z,5.50
2018-02-16T16:13:18.985Z,5.60
2018-02-16T16:15:46.512Z,6.00
2018-02-16T16:18:14.019Z,4.97
2018-02-16T16:20:41.610Z,6.07
2018-02-16T16:23:09.885Z,5.07
2018-02-16T16:25:38.145Z,4.87
2018-02-16T16:28:05.652Z,7.07
2018-02-16T16:30:33.161Z,5.10
2018-02-16T16:33:00.654Z,5.53
2018-02-16T16:35:28.252Z,5.13
2018-02-16T16:37:55.807Z,7.57
2018-02-16T16:40:23.359Z,6.40
2018-02-16T16:42:50.892Z,5.80
2018-02-16T16:45:18.489Z,5.63
2018-02-16T16:47:45.996Z,5.90
2018-02-16T16:50:13.535Z,5.50
2018-02-16T16:52:41.050Z,6.10
2018-02-16T16:55:08.582Z,6.87
2018-02-16T16:57:36.170Z,6.40
2018-02-16T17:00:03.689Z,5.57
2018-02-16T17:02:31.206Z,6.03
2018-02-16T17:04:58.705Z,6.83
2018-02-16T17:07:26.211Z,6.83
2018-02-16T17:09:53.732Z,6.70
2018-02-16T17:12:22.055Z,7.00
2018-02-16T17:14:49.567Z,6.50
2018-02-16T17:17:17.843Z,6.20
2018-02-16T17:19:46.104Z,6.50
2018-02-16T17:22:14.576Z,5.53
2018-02-16T17:24:42.101Z,7.33
2018-02-16T17:27:09.594Z,7.57
2018-02-16T17:29:37.092Z,6.97
2018-02-16T17:32:05.453Z,7.20
2018-02-16T17:34:32.955Z,6.57
2018-02-16T17:37:01.230Z,7.10
2018-02-16T17:39:29.499Z,7.90
2018-02-16T17:41:57.778Z,7.00
2018-02-16T17:44:26.027Z,7.30
2018-02-16T17:46:53.647Z,7.17
2018-02-16T17:49:21.951Z,9.70
2018-02-16T17:51:49.446Z,8.40
2018-02-16T17:54:16.942Z,6.23
2018-02-16T17:56:45.206Z,6.97
2018-02-16T17:59:13.514Z,7.70
2018-02-16T18:01:41.784Z,7.07
2018-02-16T18:04:10.063Z,7.67
2018-02-16T18:06:38.387Z,8.23
2018-02-16T18:09:05.912Z,8.63
2018-02-16T18:11:34.185Z,10.90
2018-02-16T18:14:02.653Z,12.83
2018-02-16T18:16:30.213Z,9.93
2018-02-16T18:18:58.483Z,8.20
2018-02-16T18:21:25.994Z,10.47
2018-02-16T18:23:53.495Z,10.38
2018-02-16T18:26:21.056Z,11.00
2018-02-16T18:28:48.602Z,9.35
2018-02-16T18:31:16.213Z,10.10
2018-02-16T18:33:44.507Z,10.50
2018-02-16T18:36:11.995Z,8.73
2018-02-16T18:38:39.492Z,9.60
2018-02-16T18:41:07.008Z,11.60
2018-02-16T18:43:35.303Z,9.80
2018-02-16T18:46:02.882Z,11.00
2018-02-16T18:48:30.420Z,10.48
2018-02-16T18:50:59.710Z,8.70
2018-02-16T18:53:28.024Z,9.50
2018-02-16T18:55:56.278Z,9.95
2018-02-16T18:58:24.586Z,9.38
2018-02-16T19:00:52.297Z,9.90
2018-02-16T19:03:19.911Z,10.13
2018-02-16T19:05:47.429Z,10.70
2018-02-16T19:08:14.982Z,11.30
2018-02-16T19:10:42.490Z,13.00
2018-02-16T19:13:10.808Z,13.68
2018-02-16T19:15:38.506Z,13.48
2018-02-16T19:18:06.038Z,11.05
2018-02-16T19:20:34.798Z,11.95
2018-02-16T19:23:03.057Z,12.68
2018-02-16T19:25:30.553Z,11.37
2018-02-16T19:27:58.062Z,10.98
2018-02-16T19:30:25.576Z,11.30
2018-02-16T19:32:53.125Z,11.50
2018-02-16T19:35:30.037Z,9.35
2018-02-16T19:37:59.082Z,11.55
2018-02-16T19:40:26.661Z,11.05
2018-02-16T19:42:57.647Z,10.95
2018-02-16T19:45:26.102Z,12.25
2018-02-16T19:47:54.380Z,10.05
2018-02-16T19:50:22.688Z,10.48
2018-02-16T19:52:50.269Z,11.88
2018-02-16T19:55:17.826Z,8.30
2018-02-16T19:57:45.329Z,10.07
2018-02-16T20:00:12.854Z,9.98
2018-02-16T20:02:40.372Z,10.00
2018-02-16T20:05:08.684Z,10.73
2018-02-16T20:07:36.203Z,10.90
2018-02-16T20:10:03.716Z,11.38
2018-02-16T20:12:31.240Z,10.98
2018-02-16T20:14:59.506Z,9.77
2018-02-16T20:17:27.013Z,11.40
2018-02-16T20:19:54.533Z,12.30
2018-02-16T20:22:22.038Z,12.07
2018-02-16T20:24:49.554Z,11.20
2018-02-16T20:27:17.053Z,11.80
2018-02-16T20:29:45.321Z,11.25
2018-02-16T20:32:13.638Z,13.13
2018-02-16T20:34:41.302Z,11.12
2018-02-16T20:37:08.826Z,10.40
2018-02-16T20:39:36.351Z,10.68
2018-02-16T20:42:03.883Z,10.77
2018-02-16T20:44:31.477Z,9.70
2018-02-16T20:46:59.011Z,10.75
2018-02-16T20:49:26.779Z,10.35
2018-02-16T20:51:54.285Z,10.63
2018-02-16T20:54:21.893Z,10.48
2018-02-16T20:56:50.292Z,12.80
2018-02-16T20:59:18.442Z,12.55
2018-02-16T21:01:47.010Z,13.85
2018-02-16T21:04:14.520Z,10.95
2018-02-16T21:06:42.067Z,13.07
2018-02-16T21:09:09.569Z,10.75
2018-02-16T21:11:37.585Z,10.30
2018-02-16T21:14:05.104Z,11.38
2018-02-16T21:16:32.604Z,10.85
2018-02-16T21:19:00.104Z,12.00
2018-02-16T21:21:28.412Z,11.30
2018-02-16T21:23:55.930Z,10.32
2018-02-16T21:26:24.983Z,9.25
2018-02-16T21:28:52.499Z,11.40
2018-02-16T21:31:20.761Z,11.45
2018-02-16T21:33:48.271Z,11.95
2018-02-16T21:36:15.817Z,11.05
2018-02-16T21:38:44.070Z,11.10
2018-02-16T21:41:11.600Z,11.12
2018-02-16T21:43:40.751Z,10.02
2018-02-16T21:46:09.061Z,10.52
2018-02-16T21:48:36.592Z,10.60
2018-02-16T21:51:04.953Z,11.70
2018-02-16T21:53:32.495Z,11.10
2018-02-16T21:56:00.077Z,11.10
2018-02-16T21:58:27.872Z,11.55
2018-02-16T22:00:56.193Z,12.18
2018-02-16T22:03:23.751Z,10.75
2018-02-16T22:05:52.278Z,10.85
2018-02-16T22:08:20.853Z,10.15
2018-02-16T22:10:48.407Z,10.40
2018-02-16T22:13:15.958Z,10.55
2018-02-16T22:15:43.472Z,10.80
2018-02-16T22:18:10.985Z,12.20
2018-02-16T22:20:39.466Z,13.40
2018-02-16T22:23:07.137Z,12.70
2018-02-16T22:25:34.648Z,12.20
2018-02-16T22:28:02.188Z,12.48
2018-02-16T22:30:29.792Z,11.35
2018-02-16T22:32:57.398Z,11.23
2018-02-16T22:35:25.687Z,11.55
2018-02-16T22:37:53.225Z,10.25
2018-02-16T22:40:20.747Z,10.85
2018-02-16T22:42:48.330Z,12.80
2018-02-16T22:45:16.664Z,11.52
2018-02-16T22:47:44.177Z,11.63
2018-02-16T22:50:12.632Z,11.05
2018-02-16T22:52:40.246Z,11.20
2018-02-16T22:55:08.580Z,10.90
2018-02-16T22:57:36.154Z,11.88
2018-02-16T23:00:03.756Z,12.77
2018-02-16T23:02:32.180Z,12.60
2018-02-16T23:04:59.915Z,11.95
2018-02-16T23:07:27.552Z,13.27
2018-02-16T23:09:55.916Z,12.23
2018-02-16T23:12:23.464Z,10.95
2018-02-16T23:14:51.015Z,12.15
2018-02-16T23:17:18.557Z,10.90
2018-02-16T23:19:46.956Z,11.68
2018-02-16T23:22:15.487Z,12.48
2018-02-16T23:24:43.022Z,11.52
2018-02-16T23:27:10.620Z,10.70
2018-02-16T23:29:38.136Z,12.00
2018-02-16T23:32:05.649Z,11.38
2018-02-16T23:34:33.208Z,11.48
2018-02-16T23:37:00.712Z,11.93
2018-02-16T23:39:28.296Z,10.05
2018-02-16T23:41:55.802Z,10.60
2018-02-16T23:44:23.282Z,10.52
2018-02-16T23:46:50.778Z,9.95
2018-02-16T23:49:18.352Z,11.90
2018-02-16T23:51:45.877Z,11.95
2018-02-16T23:54:13.730Z,10.82
2018-02-16T23:56:41.289Z,10.77
2018-02-16T23:59:08.885Z,12.45
